Time;durP1;ratioP1;P1;durP2;ratioP2;P2;SDS_P1;SDS_P2;PMS_P1;PMS_P2;Temp;Humidity;BMP_temperature;BMP_pressure;BME280_temperature;BME280_humidity;BME280_pressure;Samples;Min_cycle;Max_cycle;Signal;HPM_P1;HPM_P2
2022/01/24 00:02:26;;;;;;;13.20;10.38;;;7.00;99.90;;;;;;5016793;28;20441;-62
2022/01/24 00:04:52;;;;;;;13.05;10.07;;;6.90;99.90;;;;;;5017039;28;20145;-63
2022/01/24 00:07:20;;;;;;;15.68;9.50;;;6.90;99.90;;;;;;4995570;28;20660;-63
2022/01/24 00:09:47;;;;;;;13.48;9.95;;;6.90;99.90;;;;;;5018268;28;20048;-63
2022/01/24 00:17:36;;;;;;;11.45;9.80;;;6.90;99.90;;;;;;5016027;28;20041;-63
2022/01/24 00:28:07;;;;;;;9.70;8.18;;;6.80;99.90;;;;;;5020749;28;20096;-63
2022/01/24 00:30:32;;;;;;;11.35;8.30;;;6.70;99.90;;;;;;4996551;28;20048;-63
2022/01/24 00:32:58;;;;;;;10.93;9.30;;;6.70;99.90;;;;;;5021003;28;20064;-63
2022/01/24 00:35:24;;;;;;;11.32;8.25;;;6.70;99.90;;;;;;5028659;28;20041;-63
2022/01/24 00:37:49;;;;;;;10.45;8.35;;;6.70;99.90;;;;;;4998062;28;20050;-63
2022/01/24 00:40:15;;;;;;;13.82;7.63;;;6.80;99.90;;;;;;5012736;28;20682;-63
2022/01/24 00:53:49;;;;;;;12.35;8.18;;;6.70;99.90;;;;;;5010700;28;20124;-63
2022/01/24 00:56:14;;;;;;;10.80;8.10;;;6.70;99.90;;;;;;5025725;28;20295;-63
2022/01/24 00:58:40;;;;;;;10.73;8.40;;;6.70;99.90;;;;;;5023404;28;20503;-63
2022/01/24 01:01:06;;;;;;;9.93;7.82;;;6.60;99.90;;;;;;5023827;28;20041;-63
2022/01/24 01:03:32;;;;;;;12.65;9.38;;;6.70;99.90;;;;;;5021075;28;20134;-63
2022/01/24 01:06:05;;;;;;;9.43;8.02;;;6.70;99.90;;;;;;5018648;28;20069;-63
2022/01/24 01:19:31;;;;;;;15.20;8.45;;;6.60;99.90;;;;;;5012677;28;20178;-63
2022/01/24 01:21:56;;;;;;;11.77;8.68;;;6.60;99.90;;;;;;5017845;28;20037;-63
2022/01/24 01:24:24;;;;;;;12.63;8.40;;;6.60;99.90;;;;;;5007685;28;20050;-63
2022/01/24 01:26:56;;;;;;;11.50;8.45;;;6.70;99.90;;;;;;5010829;28;20068;-63
2022/01/24 01:29:27;;;;;;;10.18;8.50;;;6.70;99.90;;;;;;5023644;28;20054;-63
2022/01/24 01:56:09;;;;;;;10.40;8.02;;;6.60;99.90;;;;;;5010345;28;20053;-63
2022/01/24 01:58:35;;;;;;;10.35;7.78;;;6.60;99.90;;;;;;5008051;28;20506;-63
2022/01/24 02:01:03;;;;;;;10.45;8.75;;;6.60;99.90;;;;;;4997982;28;20615;-63
2022/01/24 02:03:29;;;;;;;11.70;9.27;;;6.60;99.90;;;;;;5004231;28;20049;-63
2022/01/24 02:05:55;;;;;;;9.90;8.50;;;6.60;99.90;;;;;;5015360;28;20401;-63
2022/01/24 02:08:29;;;;;;;10.82;8.13;;;6.60;99.90;;;;;;5021288;28;20765;-63
2022/01/24 02:10:57;;;;;;;12.50;8.77;;;6.50;99.90;;;;;;5022235;28;20585;-63
2022/01/24 02:13:24;;;;;;;11.93;8.63;;;6.60;99.90;;;;;;5020432;28;20049;-63
2022/01/24 02:16:10;;;;;;;11.98;8.75;;;6.60;99.90;;;;;;5015164;28;20050;-63
2022/01/24 02:18:50;;;;;;;14.75;8.90;;;6.60;99.90;;;;;;5014115;28;20046;-63
2022/01/24 02:21:41;;;;;;;10.25;8.32;;;6.50;99.90;;;;;;5003482;28;20038;-63
2022/01/24 02:24:06;;;;;;;10.85;9.07;;;6.60;99.90;;;;;;5021576;28;20405;-63
2022/01/24 02:26:33;;;;;;;10.05;8.55;;;6.50;99.90;;;;;;5016454;28;20041;-63
2022/01/24 02:29:11;;;;;;;10.35;9.07;;;6.50;99.90;;;;;;5013539;28;20057;-63
2022/01/24 02:31:44;;;;;;;11.52;8.93;;;6.50;99.90;;;;;;5020260;28;20049;-63
2022/01/24 02:34:30;;;;;;;11.27;8.40;;;6.50;99.90;;;;;;5022969;28;20060;-63
2022/01/24 02:37:00;;;;;;;12.65;8.60;;;6.40;99.90;;;;;;5025261;28;20053;-63
2022/01/24 02:53:00;;;;;;;11.60;8.30;;;6.50;99.90;;;;;;5023948;28;20596;-63
2022/01/24 02:55:26;;;;;;;12.18;8.75;;;6.40;99.90;;;;;;5024304;28;20112;-63
2022/01/24 02:57:52;;;;;;;11.57;8.35;;;6.50;99.90;;;;;;5011384;28;20050;-63
2022/01/24 03:00:17;;;;;;;9.98;8.15;;;6.40;99.90;;;;;;4996119;28;20041;-63
2022/01/24 03:02:43;;;;;;;11.93;8.90;;;6.40;99.90;;;;;;5002344;28;20049;-63
2022/01/24 03:05:08;;;;;;;11.20;8.88;;;6.40;99.90;;;;;;5015948;28;20060;-63
2022/01/24 03:07:34;;;;;;;11.20;9.23;;;6.40;99.90;;;;;;5023818;28;20049;-63
2022/01/24 03:10:08;;;;;;;10.18;8.45;;;6.40;99.90;;;;;;5030443;28;20065;-63
2022/01/24 03:12:45;;;;;;;9.07;7.47;;;6.40;99.90;;;;;;5020489;28;20464;-63
2022/01/24 03:15:11;;;;;;;10.43;8.40;;;6.50;99.90;;;;;;5014476;28;20038;-63
2022/01/24 03:17:37;;;;;;;12.75;9.63;;;6.50;99.90;;;;;;5018259;28;20045;-63
2022/01/24 03:20:04;;;;;;;10.63;8.40;;;6.50;99.90;;;;;;5011603;28;20536;-63
2022/01/24 03:22:30;;;;;;;12.45;8.50;;;6.50;99.90;;;;;;5026594;28;20088;-63
2022/01/24 03:24:56;;;;;;;11.48;8.95;;;6.50;99.90;;;;;;5023470;28;20048;-63
2022/01/24 03:27:22;;;;;;;10.63;8.70;;;6.50;99.90;;;;;;5024169;28;20128;-63
2022/01/24 03:29:47;;;;;;;10.50;8.18;;;6.40;99.90;;;;;;5011391;28;20104;-63
2022/01/24 03:32:13;;;;;;;11.35;8.38;;;6.40;99.90;;;;;;5021252;28;20076;-63
2022/01/24 03:34:40;;;;;;;10.95;9.23;;;6.40;99.90;;;;;;4997962;28;20058;-63
2022/01/24 03:37:06;;;;;;;11.80;8.68;;;6.40;99.90;;;;;;5018415;28;20057;-63
2022/01/24 03:39:33;;;;;;;9.15;8.20;;;6.40;99.90;;;;;;5020714;28;20061;-63
2022/01/24 03:41:59;;;;;;;11.07;8.00;;;6.40;99.90;;;;;;5021595;28;20493;-63
2022/01/24 03:44:26;;;;;;;10.10;8.05;;;6.30;99.90;;;;;;5024534;28;20440;-63
2022/01/24 03:52:08;;;;;;;9.65;7.97;;;6.30;99.90;;;;;;5026194;28;20496;-63
2022/01/24 03:54:34;;;;;;;15.88;10.30;;;6.40;99.90;;;;;;5024018;28;20061;-63
2022/01/24 03:57:00;;;;;;;11.70;8.93;;;6.40;99.90;;;;;;5025176;28;20041;-63
2022/01/24 03:59:26;;;;;;;9.98;7.82;;;6.40;99.90;;;;;;5019735;28;20081;-63
2022/01/24 04:01:51;;;;;;;10.75;8.23;;;6.40;99.90;;;;;;5016868;28;20104;-63
2022/01/24 04:04:17;;;;;;;13.40;8.88;;;6.40;99.90;;;;;;5014557;28;20042;-63
2022/01/24 04:06:43;;;;;;;9.45;8.10;;;6.40;99.90;;;;;;4994499;28;20046;-63
2022/01/24 04:09:08;;;;;;;12.95;9.75;;;6.30;99.90;;;;;;5014457;28;20076;-63
2022/01/24 04:11:37;;;;;;;10.88;8.55;;;6.40;99.90;;;;;;4996594;28;20058;-63
2022/01/24 04:14:25;;;;;;;10.55;8.73;;;6.40;99.90;;;;;;5027487;28;20112;-63
2022/01/24 04:22:14;;;;;;;11.67;8.80;;;6.40;99.90;;;;;;5005553;28;20521;-63
2022/01/24 04:24:41;;;;;;;10.00;8.25;;;6.30;99.90;;;;;;5029434;28;20052;-63
2022/01/24 04:27:07;;;;;;;15.57;9.02;;;6.30;99.90;;;;;;5018739;28;20046;-63
2022/01/24 04:29:33;;;;;;;13.77;9.68;;;6.30;99.90;;;;;;5017662;28;20034;-63
2022/01/24 04:31:59;;;;;;;12.75;9.80;;;6.30;99.90;;;;;;5018789;28;20220;-63
2022/01/24 04:34:25;;;;;;;17.50;10.07;;;6.40;99.90;;;;;;5029031;28;20042;-63
2022/01/24 04:36:51;;;;;;;12.20;9.77;;;6.30;99.90;;;;;;5010852;28;20096;-63
2022/01/24 04:39:17;;;;;;;11.93;8.98;;;6.40;99.90;;;;;;5015543;28;20041;-63
2022/01/24 04:41:46;;;;;;;13.43;9.27;;;6.30;99.90;;;;;;5023408;28;21685;-63
2022/01/24 04:44:32;;;;;;;12.85;10.05;;;6.40;99.90;;;;;;5012571;28;20141;-63
2022/01/24 04:47:13;;;;;;;15.02;10.65;;;6.40;99.90;;;;;;5020884;28;20121;-63
2022/01/24 04:55:04;;;;;;;17.40;11.52;;;6.40;99.90;;;;;;5024897;28;20049;-63
2022/01/24 04:57:30;;;;;;;14.52;10.75;;;6.30;99.90;;;;;;5017411;28;20120;-63
2022/01/24 05:00:00;;;;;;;14.35;10.77;;;6.30;99.90;;;;;;5018679;28;20116;-65
2022/01/24 05:02:26;;;;;;;13.93;11.00;;;6.30;99.90;;;;;;5014771;28;20065;-63
2022/01/24 05:04:53;;;;;;;13.32;10.80;;;6.30;99.90;;;;;;5014682;28;20056;-63
2022/01/24 05:07:18;;;;;;;15.27;9.65;;;6.40;99.90;;;;;;5016101;28;20050;-63
2022/01/24 05:09:52;;;;;;;15.15;11.07;;;6.30;99.90;;;;;;5016424;28;20103;-63
2022/01/24 05:25:31;;;;;;;15.20;11.63;;;6.20;99.90;;;;;;5022495;28;20053;-63
2022/01/24 05:27:57;;;;;;;15.90;12.02;;;6.20;99.90;;;;;;4990617;28;20386;-63
2022/01/24 05:30:22;;;;;;;14.75;10.05;;;6.30;99.90;;;;;;4999907;28;20050;-63
2022/01/24 05:32:48;;;;;;;16.88;11.65;;;6.30;99.90;;;;;;5023396;28;20085;-63
2022/01/24 05:35:14;;;;;;;16.63;11.63;;;6.30;99.90;;;;;;5012091;28;20157;-63
2022/01/24 05:37:39;;;;;;;17.42;11.65;;;6.30;99.90;;;;;;5016842;28;20062;-63
2022/01/24 05:40:06;;;;;;;14.40;11.30;;;6.30;99.90;;;;;;4994443;28;20053;-63
2022/01/24 05:42:31;;;;;;;17.13;12.23;;;6.30;99.90;;;;;;5018566;28;20493;-63
2022/01/24 05:44:58;;;;;;;19.35;12.52;;;6.30;99.90;;;;;;5013808;28;20045;-63
2022/01/24 05:47:23;;;;;;;17.33;11.13;;;6.30;99.90;;;;;;5012922;28;20049;-63
2022/01/24 05:49:49;;;;;;;15.02;12.25;;;6.20;99.90;;;;;;5012140;28;20037;-63
2022/01/24 05:52:15;;;;;;;15.88;11.82;;;6.30;99.90;;;;;;5013406;28;20050;-63
2022/01/24 05:54:42;;;;;;;17.02;12.45;;;6.30;99.90;;;;;;5021569;28;20077;-63
2022/01/24 05:57:09;;;;;;;18.27;12.25;;;6.30;99.90;;;;;;5018062;28;20045;-63
2022/01/24 05:59:35;;;;;;;17.45;12.57;;;6.30;99.90;;;;;;5002189;28;20083;-63
2022/01/24 06:02:01;;;;;;;14.38;11.05;;;6.30;99.90;;;;;;5000136;28;20101;-63
2022/01/24 06:04:26;;;;;;;16.42;12.00;;;6.30;99.90;;;;;;5024537;28;20092;-63
2022/01/24 06:06:52;;;;;;;17.02;12.40;;;6.40;99.90;;;;;;5023994;28;20037;-63
2022/01/24 06:09:17;;;;;;;17.08;12.57;;;6.30;99.90;;;;;;5025227;28;20057;-63
2022/01/24 06:11:43;;;;;;;21.13;12.52;;;6.30;99.90;;;;;;5016332;28;20034;-63
2022/01/24 06:14:10;;;;;;;22.45;15.40;;;6.30;99.90;;;;;;5009464;28;20041;-63
2022/01/24 06:16:35;;;;;;;18.77;12.65;;;6.30;99.90;;;;;;5013832;28;20105;-63
2022/01/24 06:19:01;;;;;;;20.45;13.10;;;6.30;99.90;;;;;;5024555;28;20454;-63
2022/01/24 06:21:27;;;;;;;16.48;12.68;;;6.30;99.90;;;;;;5022990;28;20183;-63
2022/01/24 06:23:52;;;;;;;18.00;13.48;;;6.20;99.90;;;;;;5013362;28;20061;-63
2022/01/24 06:26:18;;;;;;;18.75;12.88;;;6.20;99.90;;;;;;5008185;28;20166;-63
2022/01/24 06:28:43;;;;;;;20.38;14.02;;;6.20;99.90;;;;;;5009161;28;20041;-63
2022/01/24 06:31:09;;;;;;;21.73;13.40;;;6.30;99.90;;;;;;5010613;28;20049;-63
2022/01/24 06:33:35;;;;;;;19.83;13.63;;;6.30;99.90;;;;;;5009030;28;20155;-63
2022/01/24 06:36:00;;;;;;;18.48;13.30;;;6.30;99.90;;;;;;4999538;28;20567;-63
2022/01/24 06:38:26;;;;;;;16.75;12.77;;;6.30;99.90;;;;;;5019719;28;20045;-63
2022/01/24 06:40:52;;;;;;;22.27;13.23;;;6.30;99.90;;;;;;5023463;28;20130;-63
2022/01/24 06:43:17;;;;;;;17.45;13.30;;;6.30;99.90;;;;;;5011120;28;20050;-63
2022/01/24 06:45:43;;;;;;;19.38;14.60;;;6.20;99.90;;;;;;5019077;28;20056;-63
2022/01/24 06:48:09;;;;;;;19.50;13.88;;;6.20;99.90;;;;;;5025208;28;20130;-63
2022/01/24 06:50:35;;;;;;;24.55;14.00;;;6.30;99.90;;;;;;5020888;28;20047;-63
2022/01/24 06:53:00;;;;;;;19.77;13.90;;;6.20;99.90;;;;;;5014615;28;20077;-63
2022/01/24 06:55:26;;;;;;;22.30;14.25;;;6.20;99.90;;;;;;5013207;28;20033;-63
2022/01/24 06:57:51;;;;;;;21.17;14.45;;;6.20;99.90;;;;;;4994082;28;20042;-63
2022/01/24 07:00:17;;;;;;;20.52;13.65;;;6.20;99.90;;;;;;5021356;28;20537;-63
2022/01/24 07:02:42;;;;;;;23.00;14.70;;;6.20;99.90;;;;;;5009095;28;20042;-63
2022/01/24 07:05:08;;;;;;;23.63;15.07;;;6.30;99.90;;;;;;5014514;28;20095;-63
2022/01/24 07:07:34;;;;;;;19.45;14.05;;;6.30;99.90;;;;;;5019276;28;20464;-63
2022/01/24 07:10:00;;;;;;;20.35;13.98;;;6.30;99.90;;;;;;5016116;28;20042;-63
2022/01/24 07:12:26;;;;;;;21.83;15.25;;;6.30;99.90;;;;;;5013126;28;20068;-63
2022/01/24 07:14:53;;;;;;;21.35;14.15;;;6.30;99.90;;;;;;5021608;28;20549;-64
2022/01/24 07:19:50;;;;;;;21.45;14.43;;;6.30;99.90;;;;;;5001808;28;20049;-64
2022/01/24 07:22:16;;;;;;;21.15;14.00;;;6.30;99.90;;;;;;5018762;28;20114;-63
2022/01/24 07:24:42;;;;;;;23.70;15.68;;;6.30;99.90;;;;;;5013908;28;20469;-63
2022/01/24 07:27:08;;;;;;;25.92;16.35;;;6.30;99.90;;;;;;5014030;28;20053;-63
2022/01/24 07:29:34;;;;;;;20.92;14.10;;;6.30;99.90;;;;;;5018482;28;20080;-63
2022/01/24 07:32:00;;;;;;;22.95;16.25;;;6.30;99.90;;;;;;5018356;28;20072;-64
2022/01/24 07:34:26;;;;;;;21.15;14.80;;;6.30;99.90;;;;;;5011097;28;20520;-64
2022/01/24 07:36:52;;;;;;;23.45;15.52;;;6.30;99.90;;;;;;5017751;28;20065;-64
2022/01/24 07:39:18;;;;;;;22.42;15.00;;;6.30;99.90;;;;;;5018836;28;20046;-63
2022/01/24 07:41:46;;;;;;;21.55;15.40;;;6.40;99.90;;;;;;5013246;28;20045;-64
2022/01/24 07:44:12;;;;;;;24.30;15.93;;;6.40;99.90;;;;;;5005850;28;20045;-64
2022/01/24 07:46:38;;;;;;;22.02;15.73;;;6.40;99.90;;;;;;5018724;28;20127;-63
2022/01/24 07:49:10;;;;;;;22.40;14.73;;;6.30;99.90;;;;;;5020636;28;20136;-64
2022/01/24 07:51:36;;;;;;;22.10;14.93;;;6.40;99.90;;;;;;5003532;28;20052;-64
2022/01/24 07:54:02;;;;;;;21.60;15.10;;;6.40;99.90;;;;;;5010260;28;20472;-64
2022/01/24 07:56:28;;;;;;;23.70;15.90;;;6.40;99.90;;;;;;5021920;28;20124;-64
2022/01/24 07:58:53;;;;;;;21.67;14.82;;;6.40;99.90;;;;;;5030171;28;20464;-63
2022/01/24 08:01:19;;;;;;;22.48;15.75;;;6.40;99.90;;;;;;5027502;28;20049;-63
2022/01/24 08:03:45;;;;;;;19.98;15.43;;;6.40;99.90;;;;;;5018062;28;20080;-64
2022/01/24 08:06:11;;;;;;;25.85;15.48;;;6.50;99.90;;;;;;5008427;28;20085;-64
2022/01/24 08:08:36;;;;;;;23.50;15.80;;;6.40;99.90;;;;;;5018123;28;20156;-64
2022/01/24 08:11:02;;;;;;;22.58;15.60;;;6.30;99.90;;;;;;5019831;28;20092;-64
2022/01/24 08:13:28;;;;;;;24.38;16.08;;;6.30;99.90;;;;;;5022030;28;20045;-64
2022/01/24 08:15:54;;;;;;;21.63;16.98;;;6.40;99.90;;;;;;5002089;28;20052;-64
2022/01/24 08:18:19;;;;;;;23.05;15.73;;;6.40;99.90;;;;;;5016888;28;20160;-63
2022/01/24 08:20:45;;;;;;;25.23;16.17;;;6.40;99.90;;;;;;5019065;28;20041;-64
2022/01/24 08:23:11;;;;;;;25.10;17.23;;;6.40;99.90;;;;;;5015401;28;20053;-64
2022/01/24 08:25:38;;;;;;;25.02;16.38;;;6.40;99.90;;;;;;5020101;28;20056;-64
2022/01/24 08:28:04;;;;;;;25.67;16.58;;;6.40;99.90;;;;;;5001837;28;21519;-64
2022/01/24 08:30:30;;;;;;;24.27;15.40;;;6.40;99.90;;;;;;5016183;28;20558;-64
2022/01/24 08:32:56;;;;;;;22.70;16.23;;;6.40;99.90;;;;;;5013810;28;20132;-64
2022/01/24 08:35:21;;;;;;;22.85;16.65;;;6.40;99.90;;;;;;5026803;28;20077;-64
2022/01/24 08:37:47;;;;;;;29.73;18.08;;;6.40;99.90;;;;;;5018087;28;20420;-64
2022/01/24 08:40:21;;;;;;;24.40;16.90;;;6.40;99.90;;;;;;5002507;28;20045;-63
2022/01/24 08:42:57;;;;;;;28.27;17.52;;;6.40;99.90;;;;;;5003870;28;20386;-64
2022/01/24 08:45:45;;;;;;;24.02;17.10;;;6.40;99.90;;;;;;5028062;28;20050;-63
2022/01/24 08:48:13;;;;;;;25.65;18.13;;;6.40;99.90;;;;;;5028997;28;20574;-63
2022/01/24 08:50:39;;;;;;;27.98;18.67;;;6.50;99.90;;;;;;5019452;28;20041;-63
2022/01/24 08:53:05;;;;;;;27.67;18.35;;;6.50;99.90;;;;;;4991034;28;20504;-64
2022/01/24 08:55:32;;;;;;;28.58;19.08;;;6.50;99.90;;;;;;5011714;28;20385;-63
2022/01/24 08:57:59;;;;;;;30.90;19.17;;;6.50;99.90;;;;;;5005596;28;20041;-63
2022/01/24 09:00:25;;;;;;;29.10;19.80;;;6.40;99.90;;;;;;5026993;28;20037;-63
2022/01/24 09:02:51;;;;;;;29.00;19.58;;;6.50;99.90;;;;;;5010181;28;20049;-63
2022/01/24 09:05:17;;;;;;;29.80;19.30;;;6.40;99.90;;;;;;5029216;28;20060;-64
2022/01/24 09:07:44;;;;;;;31.48;20.73;;;6.50;99.90;;;;;;5028968;28;20451;-63
2022/01/24 09:10:11;;;;;;;29.45;19.55;;;6.50;99.90;;;;;;5028754;28;20095;-64
2022/01/24 09:12:37;;;;;;;35.75;22.08;;;6.50;99.90;;;;;;5027546;28;20050;-63
2022/01/24 09:15:03;;;;;;;30.25;21.42;;;6.60;99.90;;;;;;5017264;28;20041;-63
2022/01/24 09:17:29;;;;;;;32.85;21.73;;;6.50;99.90;;;;;;5014888;28;20103;-64
2022/01/24 09:19:54;;;;;;;35.40;21.95;;;6.50;99.90;;;;;;5028751;28;20041;-63
2022/01/24 09:22:20;;;;;;;28.60;20.88;;;6.50;99.90;;;;;;5028431;28;20102;-63
2022/01/24 09:24:46;;;;;;;34.85;22.55;;;6.50;99.90;;;;;;5028625;28;20085;-64
2022/01/24 09:27:11;;;;;;;30.77;20.05;;;6.50;99.90;;;;;;5026522;28;20475;-63
2022/01/24 09:29:37;;;;;;;32.28;22.08;;;6.60;99.90;;;;;;5009009;28;20046;-63
2022/01/24 09:32:03;;;;;;;29.98;20.20;;;6.50;99.90;;;;;;5008625;28;20405;-63
2022/01/24 09:34:28;;;;;;;29.90;20.42;;;6.50;99.90;;;;;;5020990;28;20688;-63
2022/01/24 09:36:54;;;;;;;35.08;21.05;;;6.50;99.90;;;;;;5028208;28;20057;-63
2022/01/24 09:39:20;;;;;;;34.72;21.10;;;6.60;99.90;;;;;;5027528;28;20049;-63
2022/01/24 09:41:46;;;;;;;29.77;19.90;;;6.50;99.90;;;;;;5027458;28;20033;-63
2022/01/24 09:44:11;;;;;;;31.88;21.95;;;6.60;99.90;;;;;;5028433;28;20049;-63
2022/01/24 09:46:40;;;;;;;32.25;21.20;;;6.50;99.90;;;;;;5027338;28;20187;-63
2022/01/24 09:49:06;;;;;;;34.22;22.50;;;6.60;99.90;;;;;;5014160;28;20038;-64
2022/01/24 09:51:33;;;;;;;35.92;22.88;;;6.50;99.90;;;;;;5024317;28;20049;-63
2022/01/24 09:53:58;;;;;;;31.05;20.60;;;6.60;99.90;;;;;;5027557;28;20414;-64
2022/01/24 09:56:24;;;;;;;33.47;23.30;;;6.60;99.90;;;;;;5020472;28;20052;-63
2022/01/24 09:58:50;;;;;;;31.10;21.98;;;6.60;99.90;;;;;;5007930;28;20037;-63
2022/01/24 10:01:18;;;;;;;37.60;22.05;;;6.60;99.90;;;;;;5018760;28;20051;-63
2022/01/24 10:04:13;;;;;;;28.67;20.52;;;6.60;99.90;;;;;;5010898;28;20038;-63
2022/01/24 10:07:02;;;;;;;36.75;23.55;;;6.60;99.90;;;;;;5010383;28;20053;-63
2022/01/24 10:09:29;;;;;;;37.92;22.73;;;6.60;99.90;;;;;;5015113;28;20448;-63
2022/01/24 10:17:59;;;;;;;32.45;22.58;;;6.60;99.90;;;;;;5007503;28;20674;-63
2022/01/24 10:20:29;;;;;;;35.83;23.85;;;6.60;99.90;;;;;;5023197;28;20049;-63
2022/01/24 10:23:13;;;;;;;31.88;22.05;;;6.60;99.90;;;;;;5012749;28;20445;-63
2022/01/24 10:25:52;;;;;;;32.40;23.25;;;6.60;99.90;;;;;;5015625;28;20066;-63
2022/01/24 10:28:24;;;;;;;31.95;21.23;;;6.60;99.90;;;;;;5011320;28;20172;-63
2022/01/24 10:31:08;;;;;;;34.33;23.90;;;6.60;99.90;;;;;;5010734;28;20048;-62
2022/01/24 10:34:06;;;;;;;33.42;21.75;;;6.60;99.90;;;;;;5007512;28;20061;-62
2022/01/24 10:36:42;;;;;;;34.25;23.08;;;6.60;99.90;;;;;;5010670;28;20539;-63
2022/01/24 10:39:18;;;;;;;40.50;22.88;;;6.60;99.90;;;;;;5023662;28;20107;-62
2022/01/24 10:44:33;;;;;;;30.95;21.67;;;6.60;99.90;;;;;;5009105;28;20049;-63
2022/01/24 10:47:19;;;;;;;37.83;23.35;;;6.60;99.90;;;;;;5019517;28;20069;-63
2022/01/24 10:49:45;;;;;;;32.15;21.25;;;6.60;99.90;;;;;;4996501;28;20080;-64
2022/01/24 10:52:21;;;;;;;33.78;22.23;;;6.60;99.90;;;;;;5011505;28;20103;-64
2022/01/24 10:54:49;;;;;;;33.35;23.20;;;6.60;99.90;;;;;;5016356;28;20458;-63
2022/01/24 10:57:26;;;;;;;30.65;21.48;;;6.60;99.90;;;;;;5030271;28;20140;-63
2022/01/24 11:00:08;;;;;;;34.33;22.42;;;6.60;99.90;;;;;;5023302;28;20077;-63
2022/01/24 11:02:41;;;;;;;30.90;21.00;;;6.60;99.90;;;;;;5013329;28;20049;-63
2022/01/24 11:05:17;;;;;;;34.88;23.73;;;6.70;99.90;;;;;;5011265;28;20096;-64
2022/01/24 11:08:00;;;;;;;34.78;23.30;;;6.60;99.90;;;;;;5030912;28;20132;-63
2022/01/24 11:10:28;;;;;;;31.70;21.63;;;6.60;99.90;;;;;;5018240;28;20129;-64
2022/01/24 11:12:54;;;;;;;31.58;22.05;;;6.60;99.90;;;;;;4993529;28;20082;-63
2022/01/24 11:15:22;;;;;;;32.53;22.65;;;6.60;99.90;;;;;;5015473;28;20072;-63
2022/01/24 11:17:48;;;;;;;30.58;21.38;;;6.60;99.90;;;;;;5018565;28;20073;-64
2022/01/24 11:20:18;;;;;;;34.78;23.30;;;6.60;99.90;;;;;;5019918;28;20084;-64
2022/01/24 11:22:58;;;;;;;38.38;23.90;;;6.60;99.90;;;;;;5007426;28;20099;-64
2022/01/24 11:25:25;;;;;;;39.15;23.55;;;6.60;99.90;;;;;;5022216;28;20091;-62
2022/01/24 11:27:50;;;;;;;35.60;22.77;;;6.60;99.90;;;;;;5023502;28;20481;-62
2022/01/24 11:30:22;;;;;;;29.70;21.50;;;6.60;99.90;;;;;;5021619;28;20095;-62
2022/01/24 11:32:58;;;;;;;33.45;23.48;;;6.70;99.90;;;;;;5026559;28;20053;-62
2022/01/24 11:35:50;;;;;;;35.55;23.73;;;6.70;99.90;;;;;;5028728;28;20051;-62
2022/01/24 11:38:33;;;;;;;32.28;22.80;;;6.70;99.90;;;;;;5028313;28;20127;-63
2022/01/24 11:41:21;;;;;;;33.70;23.05;;;6.70;99.90;;;;;;5029345;28;20885;-63
2022/01/24 11:43:51;;;;;;;35.05;25.17;;;6.70;99.90;;;;;;5001497;28;20081;-63
2022/01/24 11:49:18;;;;;;;31.50;23.13;;;6.60;99.90;;;;;;5027719;28;20064;-63
2022/01/24 11:51:47;;;;;;;30.60;21.38;;;6.70;99.90;;;;;;5014107;28;20053;-63
2022/01/24 11:54:30;;;;;;;35.67;23.55;;;6.70;99.90;;;;;;4999800;28;20051;-63
2022/01/24 11:57:20;;;;;;;35.90;22.35;;;6.70;99.90;;;;;;5016736;28;20049;-64
2022/01/24 11:59:47;;;;;;;41.88;25.55;;;6.70;99.90;;;;;;5009084;28;20160;-63
2022/01/24 12:02:18;;;;;;;36.58;25.00;;;6.70;99.90;;;;;;5016584;28;20049;-63
2022/01/24 12:05:08;;;;;;;38.03;24.17;;;6.70;99.90;;;;;;4999023;28;20598;-63
2022/01/24 12:07:43;;;;;;;45.75;25.67;;;6.80;99.90;;;;;;5011747;28;20146;-63
2022/01/24 12:10:37;;;;;;;40.33;26.48;;;6.80;99.90;;;;;;5020919;28;20057;-63
2022/01/24 12:13:13;;;;;;;42.13;27.10;;;6.80;99.90;;;;;;5025515;28;20065;-63
2022/01/24 12:15:39;;;;;;;40.40;26.80;;;6.80;99.90;;;;;;5026419;28;20497;-63
2022/01/24 12:18:22;;;;;;;38.20;24.05;;;6.80;99.90;;;;;;5028776;28;20060;-63
2022/01/24 12:21:06;;;;;;;37.47;26.23;;;6.80;99.90;;;;;;5023989;28;20069;-63
2022/01/24 12:23:53;;;;;;;38.38;25.70;;;6.80;99.90;;;;;;5025162;28;20125;-63
2022/01/24 12:26:19;;;;;;;37.60;26.23;;;6.70;99.90;;;;;;4994379;28;20045;-63
2022/01/24 12:28:45;;;;;;;37.90;26.13;;;6.80;99.90;;;;;;5019759;28;20056;-64
2022/01/24 12:31:28;;;;;;;39.80;26.58;;;6.80;99.90;;;;;;5029177;28;20053;-63
2022/01/24 12:33:53;;;;;;;41.60;28.63;;;6.80;99.90;;;;;;5009895;28;20486;-64
2022/01/24 12:36:39;;;;;;;44.08;30.05;;;6.80;99.90;;;;;;5014173;28;20050;-63
2022/01/24 12:39:24;;;;;;;42.45;29.25;;;6.80;99.90;;;;;;5016932;28;20469;-63
2022/01/24 12:41:58;;;;;;;48.00;34.42;;;6.80;99.90;;;;;;5019710;28;20060;-63
2022/01/24 12:47:06;;;;;;;51.08;33.03;;;6.80;99.90;;;;;;5015580;28;20081;-63
2022/01/24 12:49:32;;;;;;;45.58;31.08;;;6.80;99.90;;;;;;5026947;28;20108;-64
2022/01/24 12:52:00;;;;;;;44.83;31.17;;;6.80;99.90;;;;;;5023183;28;20076;-63
2022/01/24 12:54:30;;;;;;;38.67;29.65;;;6.70;99.90;;;;;;5013515;28;20033;-64
2022/01/24 12:57:01;;;;;;;41.47;30.83;;;6.70;99.90;;;;;;5014779;28;20396;-63
2022/01/24 12:59:27;;;;;;;46.25;33.95;;;6.70;99.90;;;;;;5017674;28;20045;-63
2022/01/24 13:01:56;;;;;;;47.25;32.95;;;6.70;99.90;;;;;;5014607;28;20103;-63
2022/01/24 13:04:38;;;;;;;40.33;30.27;;;6.70;99.90;;;;;;5012711;28;20457;-63
2022/01/24 13:07:08;;;;;;;44.60;31.83;;;6.70;99.90;;;;;;5014086;28;20045;-63
2022/01/24 13:09:35;;;;;;;41.97;31.58;;;6.70;99.90;;;;;;5028900;28;20468;-63
2022/01/24 13:12:04;;;;;;;43.88;32.85;;;6.70;99.90;;;;;;5028542;28;20052;-63
2022/01/24 13:14:55;;;;;;;44.92;33.55;;;6.80;99.90;;;;;;5028662;28;20046;-63
2022/01/24 13:20:58;;;;;;;48.28;33.45;;;6.80;99.90;;;;;;5022236;28;20636;-63
2022/01/24 13:23:23;;;;;;;38.80;31.02;;;6.70;99.90;;;;;;5008763;28;20056;-63
2022/01/24 13:25:49;;;;;;;46.70;34.53;;;6.70;99.90;;;;;;5008969;28;20053;-63
2022/01/24 13:28:19;;;;;;;33.95;27.45;;;6.70;99.90;;;;;;5006855;28;20551;-63
2022/01/24 13:30:51;;;;;;;47.03;31.05;;;6.70;99.90;;;;;;5013629;28;20084;-63
2022/01/24 13:33:22;;;;;;;36.80;27.88;;;6.70;99.90;;;;;;5009458;28;20050;-63
2022/01/24 13:35:51;;;;;;;45.88;31.58;;;6.70;99.90;;;;;;5008963;28;20096;-63
2022/01/24 13:38:18;;;;;;;45.03;33.13;;;6.80;99.90;;;;;;5008767;28;20494;-63
2022/01/24 13:40:54;;;;;;;43.88;31.77;;;6.80;99.90;;;;;;5007588;28;20137;-63
2022/01/24 13:43:34;;;;;;;42.53;31.10;;;6.80;99.90;;;;;;5010756;28;20085;-63
2022/01/24 13:46:01;;;;;;;37.25;28.25;;;6.80;99.90;;;;;;5008332;28;20034;-63
2022/01/24 13:48:27;;;;;;;41.90;31.38;;;6.70;99.90;;;;;;5008771;28;20137;-63
2022/01/24 13:50:58;;;;;;;44.95;33.13;;;6.80;99.90;;;;;;5010753;28;20116;-63
2022/01/24 13:53:36;;;;;;;41.67;31.95;;;6.80;99.90;;;;;;5008830;28;20073;-63
2022/01/24 13:56:20;;;;;;;38.40;29.13;;;6.80;99.90;;;;;;5008892;28;20037;-64
2022/01/24 13:59:06;;;;;;;45.40;30.52;;;6.80;99.90;;;;;;5020227;28;20508;-63
2022/01/24 14:01:32;;;;;;;43.38;32.33;;;6.80;99.90;;;;;;5023178;28;20053;-63
2022/01/24 14:04:08;;;;;;;40.50;30.27;;;6.80;99.90;;;;;;5009729;28;20049;-63
2022/01/24 14:06:37;;;;;;;44.40;32.28;;;6.80;99.90;;;;;;5020404;28;20053;-63
2022/01/24 14:09:09;;;;;;;47.55;32.08;;;6.80;99.90;;;;;;5016248;28;20050;-63
2022/01/24 14:11:49;;;;;;;40.75;31.50;;;6.70;99.90;;;;;;5016236;28;20397;-63
2022/01/24 14:14:20;;;;;;;38.85;28.25;;;6.80;99.90;;;;;;5026549;28;20053;-63
2022/01/24 14:17:10;;;;;;;39.55;31.17;;;6.70;99.90;;;;;;5018222;28;20068;-64
2022/01/24 14:19:36;;;;;;;42.60;32.42;;;6.70;99.90;;;;;;5023035;28;20046;-63
2022/01/24 14:22:07;;;;;;;47.40;31.98;;;6.70;99.90;;;;;;5015153;28;20140;-63
2022/01/24 14:24:51;;;;;;;45.95;34.17;;;6.70;99.90;;;;;;5007783;28;20050;-63
2022/01/24 14:27:41;;;;;;;46.65;34.50;;;6.70;99.90;;;;;;5008490;28;20607;-63
2022/01/24 14:30:20;;;;;;;45.20;32.50;;;6.70;99.90;;;;;;5013220;28;20066;-64
2022/01/24 14:33:06;;;;;;;45.97;34.35;;;6.70;99.90;;;;;;4995276;28;20421;-64
2022/01/24 14:35:38;;;;;;;39.90;29.17;;;6.80;99.90;;;;;;5022417;28;20091;-63
2022/01/24 14:38:05;;;;;;;40.90;28.33;;;6.60;99.90;;;;;;5012678;28;20077;-64
2022/01/24 14:40:46;;;;;;;40.85;30.65;;;6.70;99.90;;;;;;5012550;28;20076;-64
2022/01/24 14:46:05;;;;;;;44.50;33.08;;;6.70;99.90;;;;;;5031458;28;20139;-63
2022/01/24 14:48:30;;;;;;;46.15;32.40;;;6.70;99.90;;;;;;5018544;28;20677;-63
2022/01/24 14:50:56;;;;;;;44.45;33.67;;;6.80;99.90;;;;;;5024100;28;20128;-63
2022/01/24 14:53:28;;;;;;;44.78;34.30;;;6.70;99.90;;;;;;5032154;28;20428;-64
2022/01/24 14:55:53;;;;;;;45.83;34.03;;;6.70;99.90;;;;;;5031936;28;20048;-63
2022/01/24 14:58:19;;;;;;;48.65;34.45;;;6.70;99.90;;;;;;5027475;28;20049;-64
2022/01/24 15:00:44;;;;;;;45.38;34.42;;;6.70;99.90;;;;;;5025775;28;20033;-64